Archival Weather

Chicago O'Hare International

Chicago, Illinois (KORD)

Report from: Thursday, May 11, 2023 4:51 PM CDT
Current time: Sunday, February 25, 2024 4:54 PM CST

Current weather – Weather history – Daily summaries
Weather forecast

Temperature27.8°C (82.0°F)
Heat index26.9°C (80.4°F)
Dew point4.4°C (39.9°F)
Winds 11 kts (5.7 m/s, 12.7 mph) East (100°)
Visibility10 mi. (16.1 km)
Clouds Few clouds 25,000 ft. (7,620 m)
Ceiling: Broken clouds 35,000 ft. (10,668 m)
Altimeter30.01 in.Hg (1016 mB)
Relative humidity22 %
Density altitude1,518 ft. (463 m)
Sea-level pressure101.6 kPa (1016 mB, 29.99 in.Hg)
Remarks Automated weather observing station with precipitation discriminator
Flight conditions Visual Meteorological Conditions
Raw dataKORD 112151Z 10011KT 10SM FEW250 BKN350 28/04 A3001 RMK AO2 SLP157 T02780044
An error has occurred. This application may no longer respond until reloaded. Reload 🗙